sensor_id;sensor_type;location;lat;lon;timestamp;pressure;altitude;pressure_sealevel;temperature;humidity
29331;BME280;16331;52.528;13.342;2022-12-10T00:01:56;155670.56;;;-0.25;100.00
29331;BME280;16331;52.528;13.342;2022-12-10T00:04:23;155682.78;;;-0.21;100.00
29331;BME280;16331;52.528;13.342;2022-12-10T00:06:49;155796.88;;;0.22;100.00
29331;BME280;16331;52.528;13.342;2022-12-10T00:09:17;155688.22;;;-0.19;100.00
29331;BME280;16331;52.528;13.342;2022-12-10T00:11:44;155696.34;;;-0.16;100.00
29331;BME280;16331;52.528;13.342;2022-12-10T00:14:12;155761.53;;;0.09;100.00
29331;BME280;16331;52.528;13.342;2022-12-10T00:16:39;155769.69;;;0.12;100.00
29331;BME280;16331;52.528;13.342;2022-12-10T00:19:06;155837.63;;;0.37;100.00
29331;BME280;16331;52.528;13.342;2022-12-10T00:21:35;155757.47;;;0.07;100.00
29331;BME280;16331;52.528;13.342;2022-12-10T00:24:02;155705.88;;;-0.12;100.00
29331;BME280;16331;52.528;13.342;2022-12-10T00:26:36;155728.97;;;-0.04;100.00
29331;BME280;16331;52.528;13.342;2022-12-10T00:29:06;155745.25;;;0.03;100.00
29331;BME280;16331;52.528;13.342;2022-12-10T00:31:35;155718.09;;;-0.08;100.00
29331;BME280;16331;52.528;13.342;2022-12-10T00:34:06;155659.72;;;-0.29;100.00
29331;BME280;16331;52.528;13.342;2022-12-10T00:36:43;155671.94;;;-0.25;100.00
29331;BME280;16331;52.528;13.342;2022-12-10T00:39:12;155696.34;;;-0.16;100.00
29331;BME280;16331;52.528;13.342;2022-12-10T00:41:39;155712.63;;;-0.10;100.00
29331;BME280;16331;52.528;13.342;2022-12-10T00:44:05;155682.78;;;-0.21;100.00
29331;BME280;16331;52.528;13.342;2022-12-10T00:46:32;155656.97;;;-0.30;100.00
29331;BME280;16331;52.528;13.342;2022-12-10T00:49:00;155635.25;;;-0.38;100.00
29331;BME280;16331;52.528;13.342;2022-12-10T00:51:27;155654.28;;;-0.31;100.00
29331;BME280;16331;52.528;13.342;2022-12-10T00:53:56;155610.84;;;-0.47;100.00
29331;BME280;16331;52.528;13.342;2022-12-10T00:56:26;155627.13;;;-0.41;100.00
29331;BME280;16331;52.528;13.342;2022-12-10T00:58:55;155640.69;;;-0.36;100.00
29331;BME280;16331;52.528;13.342;2022-12-10T01:01:37;155712.63;;;-0.10;100.00
29331;BME280;16331;52.528;13.342;2022-12-10T01:04:09;155738.50;;;0.00;100.00
29331;BME280;16331;52.528;13.342;2022-12-10T01:06:50;155802.31;;;0.24;100.00
29331;BME280;16331;52.528;13.342;2022-12-10T01:09:20;155765.63;;;0.10;100.00
29331;BME280;16331;52.528;13.342;2022-12-10T01:11:49;155644.78;;;-0.35;100.00
29331;BME280;16331;52.528;13.342;2022-12-10T01:14:27;155674.63;;;-0.24;100.00
29331;BME280;16331;52.528;13.342;2022-12-10T01:16:55;155651.59;;;-0.32;100.00
29331;BME280;16331;52.528;13.342;2022-12-10T01:19:23;155682.78;;;-0.21;100.00
29331;BME280;16331;52.528;13.342;2022-12-10T01:21:55;155661.03;;;-0.29;100.00
29331;BME280;16331;52.528;13.342;2022-12-10T01:24:23;155601.34;;;-0.51;100.00
29331;BME280;16331;52.528;13.342;2022-12-10T01:26:50;155599.97;;;-0.51;100.00
29331;BME280;16331;52.528;13.342;2022-12-10T01:29:18;155566.03;;;-0.64;100.00
29331;BME280;16331;52.528;13.342;2022-12-10T01:31:50;155571.47;;;-0.62;100.00
29331;BME280;16331;52.528;13.342;2022-12-10T01:34:17;155561.97;;;-0.65;100.00
29331;BME280;16331;52.528;13.342;2022-12-10T01:36:47;155594.56;;;-0.53;100.00
29331;BME280;16331;52.528;13.342;2022-12-10T01:39:19;155647.50;;;-0.34;100.00
29331;BME280;16331;52.528;13.342;2022-12-10T01:41:49;155595.88;;;-0.53;100.00
29331;BME280;16331;52.528;13.342;2022-12-10T01:46:49;155570.09;;;-0.62;100.00
29331;BME280;16331;52.528;13.342;2022-12-10T01:49:27;155560.66;;;-0.66;100.00
29331;BME280;16331;52.528;13.342;2022-12-10T01:51:57;155533.50;;;-0.76;100.00
29331;BME280;16331;52.528;13.342;2022-12-10T01:54:26;155533.50;;;-0.76;100.00
29331;BME280;16331;52.528;13.342;2022-12-10T01:56:59;155576.91;;;-0.60;100.00
29331;BME280;16331;52.528;13.342;2022-12-10T01:59:27;155582.38;;;-0.58;100.00
29331;BME280;16331;52.528;13.342;2022-12-10T02:04:29;155504.97;;;-0.86;100.00
29331;BME280;16331;52.528;13.342;2022-12-10T02:12:53;155559.28;;;-0.66;100.00
29331;BME280;16331;52.528;13.342;2022-12-10T02:15:26;155517.22;;;-0.82;100.00
29331;BME280;16331;52.528;13.342;2022-12-10T02:18:12;155502.28;;;-0.87;100.00
29331;BME280;16331;52.528;13.342;2022-12-10T02:20:49;155473.81;;;-0.98;100.00
29331;BME280;16331;52.528;13.342;2022-12-10T02:23:24;155513.16;;;-0.83;100.00
29331;BME280;16331;52.528;13.342;2022-12-10T02:26:14;155515.84;;;-0.82;100.00
29331;BME280;16331;52.528;13.342;2022-12-10T02:31:15;155525.34;;;-0.79;100.00
29331;BME280;16331;52.528;13.342;2022-12-10T02:33:49;155498.22;;;-0.89;100.00
29331;BME280;16331;52.528;13.342;2022-12-10T02:36:19;155479.19;;;-0.96;100.00
29331;BME280;16331;52.528;13.342;2022-12-10T02:38:48;155484.63;;;-0.94;100.00
29331;BME280;16331;52.528;13.342;2022-12-10T02:41:23;155446.66;;;-1.08;100.00
29331;BME280;16331;52.528;13.342;2022-12-10T02:43:53;155465.66;;;-1.01;100.00
29331;BME280;16331;52.528;13.342;2022-12-10T02:46:22;155479.19;;;-0.96;100.00
29331;BME280;16331;52.528;13.342;2022-12-10T02:48:50;155465.66;;;-1.01;100.00
29331;BME280;16331;52.528;13.342;2022-12-10T02:51:18;155465.66;;;-1.01;100.00
29331;BME280;16331;52.528;13.342;2022-12-10T02:53:45;155487.31;;;-0.93;100.00
29331;BME280;16331;52.528;13.342;2022-12-10T02:56:21;155503.66;;;-0.87;100.00
29331;BME280;16331;52.528;13.342;2022-12-10T03:01:37;155510.41;;;-0.84;100.00
29331;BME280;16331;52.528;13.342;2022-12-10T03:04:17;155494.13;;;-0.90;100.00
29331;BME280;16331;52.528;13.342;2022-12-10T03:07:01;155506.34;;;-0.86;100.00
29331;BME280;16331;52.528;13.342;2022-12-10T03:09:56;155514.47;;;-0.83;100.00
29331;BME280;16331;52.528;13.342;2022-12-10T03:12:33;155519.91;;;-0.81;100.00
29331;BME280;16331;52.528;13.342;2022-12-10T03:15:05;155563.34;;;-0.65;100.00
29331;BME280;16331;52.528;13.342;2022-12-10T03:17:34;155591.81;;;-0.54;100.00
29331;BME280;16331;52.528;13.342;2022-12-10T03:20:03;155639.31;;;-0.37;100.00
29331;BME280;16331;52.528;13.342;2022-12-10T03:22:39;155599.97;;;-0.51;100.00
29331;BME280;16331;52.528;13.342;2022-12-10T03:25:09;155581.00;;;-0.58;100.00
29331;BME280;16331;52.528;13.342;2022-12-10T03:27:38;155564.72;;;-0.64;100.00
29331;BME280;16331;52.528;13.342;2022-12-10T03:30:06;155572.84;;;-0.61;100.00
29331;BME280;16331;52.528;13.342;2022-12-10T03:32:32;155595.88;;;-0.53;100.00
29331;BME280;16331;52.528;13.342;2022-12-10T03:35:00;155559.28;;;-0.66;100.00
29331;BME280;16331;52.528;13.342;2022-12-10T03:37:28;155555.22;;;-0.68;100.00
29331;BME280;16331;52.528;13.342;2022-12-10T03:39:57;155557.91;;;-0.67;100.00
29331;BME280;16331;52.528;13.342;2022-12-10T03:42:24;155601.34;;;-0.51;100.00
29331;BME280;16331;52.528;13.342;2022-12-10T03:44:52;155612.22;;;-0.47;100.00
29331;BME280;16331;52.528;13.342;2022-12-10T03:47:18;155561.97;;;-0.65;100.00
29331;BME280;16331;52.528;13.342;2022-12-10T03:49:46;155568.78;;;-0.63;100.00
29331;BME280;16331;52.528;13.342;2022-12-10T03:52:12;155563.34;;;-0.65;100.00
29331;BME280;16331;52.528;13.342;2022-12-10T03:54:39;155556.59;;;-0.67;100.00
29331;BME280;16331;52.528;13.342;2022-12-10T03:57:05;155590.50;;;-0.55;100.00
29331;BME280;16331;52.528;13.342;2022-12-10T03:59:31;155575.53;;;-0.60;100.00
29331;BME280;16331;52.528;13.342;2022-12-10T04:01:58;155595.88;;;-0.53;100.00
29331;BME280;16331;52.528;13.342;2022-12-10T04:04:24;155606.78;;;-0.49;100.00
29331;BME280;16331;52.528;13.342;2022-12-10T04:06:52;155639.31;;;-0.37;100.00
29331;BME280;16331;52.528;13.342;2022-12-10T04:09:18;155658.34;;;-0.30;100.00
29331;BME280;16331;52.528;13.342;2022-12-10T04:11:46;155638.00;;;-0.37;100.00
29331;BME280;16331;52.528;13.342;2022-12-10T04:14:13;155627.13;;;-0.41;100.00
29331;BME280;16331;52.528;13.342;2022-12-10T04:16:58;155652.91;;;-0.32;100.00
29331;BME280;16331;52.528;13.342;2022-12-10T04:19:24;155669.19;;;-0.26;100.00
29331;BME280;16331;52.528;13.342;2022-12-10T04:21:52;155709.94;;;-0.11;100.00
29331;BME280;16331;52.528;13.342;2022-12-10T04:24:37;155786.03;;;0.18;100.00
29331;BME280;16331;52.528;13.342;2022-12-10T04:27:26;155709.94;;;-0.11;100.00
29331;BME280;16331;52.528;13.342;2022-12-10T04:29:54;155705.88;;;-0.12;100.00
29331;BME280;16331;52.528;13.342;2022-12-10T04:32:22;155769.69;;;0.12;100.00
29331;BME280;16331;52.528;13.342;2022-12-10T04:34:48;155781.91;;;0.16;100.00
29331;BME280;16331;52.528;13.342;2022-12-10T04:37:15;155791.41;;;0.20;100.00
29331;BME280;16331;52.528;13.342;2022-12-10T04:39:42;155771.06;;;0.12;100.00
29331;BME280;16331;52.528;13.342;2022-12-10T04:42:10;155699.09;;;-0.15;100.00
29331;BME280;16331;52.528;13.342;2022-12-10T04:44:39;155720.84;;;-0.07;100.00
29331;BME280;16331;52.528;13.342;2022-12-10T04:47:07;155767.00;;;0.11;100.00
29331;BME280;16331;52.528;13.342;2022-12-10T04:49:34;155786.03;;;0.18;100.00
29331;BME280;16331;52.528;13.342;2022-12-10T04:52:00;155758.84;;;0.08;100.00
29331;BME280;16331;52.528;13.342;2022-12-10T04:54:27;155825.38;;;0.32;100.00
29331;BME280;16331;52.528;13.342;2022-12-10T04:56:57;155829.44;;;0.34;100.00
29331;BME280;16331;52.528;13.342;2022-12-10T04:59:23;155828.13;;;0.33;100.00
29331;BME280;16331;52.528;13.342;2022-12-10T05:01:53;155822.66;;;0.31;100.00
29331;BME280;16331;52.528;13.342;2022-12-10T05:04:22;155758.84;;;0.08;100.00
29331;BME280;16331;52.528;13.342;2022-12-10T05:06:49;155811.81;;;0.27;100.00
29331;BME280;16331;52.528;13.342;2022-12-10T05:09:16;155799.56;;;0.23;100.00
29331;BME280;16331;52.528;13.342;2022-12-10T05:11:45;155794.16;;;0.21;100.00
29331;BME280;16331;52.528;13.342;2022-12-10T05:14:13;155780.59;;;0.16;100.00
29331;BME280;16331;52.528;13.342;2022-12-10T05:16:40;155788.72;;;0.19;100.00
29331;BME280;16331;52.528;13.342;2022-12-10T05:19:07;155824.03;;;0.32;100.00
29331;BME280;16331;52.528;13.342;2022-12-10T05:21:34;155837.63;;;0.37;100.00
29331;BME280;16331;52.528;13.342;2022-12-10T05:24:19;155806.38;;;0.25;100.00
29331;BME280;16331;52.528;13.342;2022-12-10T05:26:45;155843.03;;;0.39;100.00
29331;BME280;16331;52.528;13.342;2022-12-10T05:29:13;155864.78;;;0.47;100.00
29331;BME280;16331;52.528;13.342;2022-12-10T05:31:40;155838.97;;;0.37;100.00
29331;BME280;16331;52.528;13.342;2022-12-10T05:34:08;155868.84;;;0.48;100.00
29331;BME280;16331;52.528;13.342;2022-12-10T05:36:36;155949.03;;;0.78;100.00
29331;BME280;16331;52.528;13.342;2022-12-10T05:39:02;155989.84;;;0.93;100.00
29331;BME280;16331;52.528;13.342;2022-12-10T05:41:33;155906.94;;;0.62;100.00
29331;BME280;16331;52.528;13.342;2022-12-10T05:43:59;155879.75;;;0.52;100.00
29331;BME280;16331;52.528;13.342;2022-12-10T05:46:30;155932.75;;;0.72;100.00
29331;BME280;16331;52.528;13.342;2022-12-10T05:48:57;155885.19;;;0.54;100.00
29331;BME280;16331;52.528;13.342;2022-12-10T05:51:29;155978.94;;;0.89;100.00
29331;BME280;16331;52.528;13.342;2022-12-10T05:53:57;155905.56;;;0.62;100.00
29331;BME280;16331;52.528;13.342;2022-12-10T05:56:27;155862.06;;;0.46;100.00
29331;BME280;16331;52.528;13.342;2022-12-10T05:58:58;155864.78;;;0.47;100.00
29331;BME280;16331;52.528;13.342;2022-12-10T06:01:28;155794.16;;;0.21;100.00
29331;BME280;16331;52.528;13.342;2022-12-10T06:03:56;155811.81;;;0.27;100.00
29331;BME280;16331;52.528;13.342;2022-12-10T06:06:24;155832.19;;;0.35;100.00
29331;BME280;16331;52.528;13.342;2022-12-10T06:08:51;155845.78;;;0.40;100.00
29331;BME280;16331;52.528;13.342;2022-12-10T06:11:18;155872.91;;;0.50;100.00
29331;BME280;16331;52.528;13.342;2022-12-10T06:13:45;155836.25;;;0.36;100.00
29331;BME280;16331;52.528;13.342;2022-12-10T06:16:13;155845.78;;;0.40;100.00
29331;BME280;16331;52.528;13.342;2022-12-10T06:18:40;155798.25;;;0.22;100.00
29331;BME280;16331;52.528;13.342;2022-12-10T06:21:09;155810.47;;;0.27;100.00
29331;BME280;16331;52.528;13.342;2022-12-10T06:23:37;155832.19;;;0.35;100.00
29331;BME280;16331;52.528;13.342;2022-12-10T06:26:09;155818.59;;;0.30;100.00
29331;BME280;16331;52.528;13.342;2022-12-10T06:28:37;155794.16;;;0.21;100.00
29331;BME280;16331;52.528;13.342;2022-12-10T06:31:04;155790.09;;;0.19;100.00
29331;BME280;16331;52.528;13.342;2022-12-10T06:33:30;155784.66;;;0.17;100.00
29331;BME280;16331;52.528;13.342;2022-12-10T06:35:57;155787.34;;;0.18;100.00
29331;BME280;16331;52.528;13.342;2022-12-10T06:38:23;155803.63;;;0.24;100.00
29331;BME280;16331;52.528;13.342;2022-12-10T06:40:51;155788.72;;;0.19;100.00
29331;BME280;16331;52.528;13.342;2022-12-10T06:43:17;155747.94;;;0.03;100.00
29331;BME280;16331;52.528;13.342;2022-12-10T06:45:43;155821.28;;;0.31;100.00
29331;BME280;16331;52.528;13.342;2022-12-10T06:48:10;155821.28;;;0.31;100.00
29331;BME280;16331;52.528;13.342;2022-12-10T06:50:36;155787.34;;;0.18;100.00
29331;BME280;16331;52.528;13.342;2022-12-10T06:53:06;155769.69;;;0.12;100.00
29331;BME280;16331;52.528;13.342;2022-12-10T06:55:32;155800.94;;;0.23;100.00
29331;BME280;16331;52.528;13.342;2022-12-10T06:57:58;155881.13;;;0.53;100.00
29331;BME280;16331;52.528;13.342;2022-12-10T07:00:24;155919.16;;;0.67;100.00
29331;BME280;16331;52.528;13.342;2022-12-10T07:02:50;155855.31;;;0.43;100.00
29331;BME280;16331;52.528;13.342;2022-12-10T07:05:17;155791.41;;;0.20;100.00
29331;BME280;16331;52.528;13.342;2022-12-10T07:07:43;155760.16;;;0.08;100.00
29331;BME280;16331;52.528;13.342;2022-12-10T07:10:09;155805.00;;;0.25;100.00
29331;BME280;16331;52.528;13.342;2022-12-10T07:12:36;155803.63;;;0.24;100.00
29331;BME280;16331;52.528;13.342;2022-12-10T07:15:04;155768.38;;;0.11;100.00
29331;BME280;16331;52.528;13.342;2022-12-10T07:17:30;155786.03;;;0.18;100.00
29331;BME280;16331;52.528;13.342;2022-12-10T07:19:57;155800.94;;;0.23;100.00
29331;BME280;16331;52.528;13.342;2022-12-10T07:22:23;155788.72;;;0.19;100.00
29331;BME280;16331;52.528;13.342;2022-12-10T07:24:49;155739.81;;;0.00;100.00
29331;BME280;16331;52.528;13.342;2022-12-10T07:27:16;155716.75;;;-0.08;100.00
29331;BME280;16331;52.528;13.342;2022-12-10T07:29:44;155715.38;;;-0.09;100.00
29331;BME280;16331;52.528;13.342;2022-12-10T07:32:11;155739.81;;;0.00;100.00
29331;BME280;16331;52.528;13.342;2022-12-10T07:34:38;155700.44;;;-0.14;100.00
29331;BME280;16331;52.528;13.342;2022-12-10T07:37:04;155756.09;;;0.07;100.00
29331;BME280;16331;52.528;13.342;2022-12-10T07:39:33;155754.78;;;0.06;100.00
29331;BME280;16331;52.528;13.342;2022-12-10T07:41:59;155780.59;;;0.16;100.00
29331;BME280;16331;52.528;13.342;2022-12-10T07:44:26;155773.75;;;0.13;100.00
29331;BME280;16331;52.528;13.342;2022-12-10T07:46:54;155743.88;;;0.02;100.00
29331;BME280;16331;52.528;13.342;2022-12-10T07:49:23;155783.28;;;0.17;100.00
29331;BME280;16331;52.528;13.342;2022-12-10T07:51:50;155746.63;;;0.03;100.00
29331;BME280;16331;52.528;13.342;2022-12-10T07:54:17;155792.78;;;0.20;100.00
29331;BME280;16331;52.528;13.342;2022-12-10T07:56:43;155840.34;;;0.38;100.00
29331;BME280;16331;52.528;13.342;2022-12-10T07:59:10;155870.22;;;0.49;100.00
29331;BME280;16331;52.528;13.342;2022-12-10T08:01:36;155838.97;;;0.37;100.00
29331;BME280;16331;52.528;13.342;2022-12-10T08:04:02;155919.16;;;0.67;100.00
29331;BME280;16331;52.528;13.342;2022-12-10T08:06:30;155889.25;;;0.56;100.00
29331;BME280;16331;52.528;13.342;2022-12-10T08:08:59;155891.97;;;0.57;100.00
29331;BME280;16331;52.528;13.342;2022-12-10T08:11:26;155818.59;;;0.30;100.00
29331;BME280;16331;52.528;13.342;2022-12-10T08:13:52;155837.63;;;0.37;100.00
29331;BME280;16331;52.528;13.342;2022-12-10T08:16:20;155761.53;;;0.09;100.00
29331;BME280;16331;52.528;13.342;2022-12-10T08:18:49;155764.28;;;0.10;100.00
29331;BME280;16331;52.528;13.342;2022-12-10T08:21:18;155810.47;;;0.27;100.00
29331;BME280;16331;52.528;13.342;2022-12-10T08:23:45;155777.81;;;0.15;100.00
29331;BME280;16331;52.528;13.342;2022-12-10T08:26:17;155795.50;;;0.21;100.00
29331;BME280;16331;52.528;13.342;2022-12-10T08:28:44;155813.16;;;0.28;100.00
29331;BME280;16331;52.528;13.342;2022-12-10T08:31:13;155855.31;;;0.43;100.00
29331;BME280;16331;52.528;13.342;2022-12-10T08:33:40;155872.91;;;0.50;100.00
29331;BME280;16331;52.528;13.342;2022-12-10T08:36:08;155868.84;;;0.48;100.00
29331;BME280;16331;52.528;13.342;2022-12-10T08:38:35;155833.56;;;0.35;100.00
29331;BME280;16331;52.528;13.342;2022-12-10T08:41:20;155818.59;;;0.30;100.00
29331;BME280;16331;52.528;13.342;2022-12-10T08:43:50;155771.06;;;0.12;100.00
29331;BME280;16331;52.528;13.342;2022-12-10T08:46:17;155784.66;;;0.17;100.00
29331;BME280;16331;52.528;13.342;2022-12-10T08:48:43;155802.31;;;0.24;100.00
29331;BME280;16331;52.528;13.342;2022-12-10T08:51:12;155871.59;;;0.49;100.00
29331;BME280;16331;52.528;13.342;2022-12-10T08:53:39;155867.53;;;0.48;100.00
29331;BME280;16331;52.528;13.342;2022-12-10T08:56:06;155848.47;;;0.41;100.00
29331;BME280;16331;52.528;13.342;2022-12-10T08:58:32;155890.59;;;0.56;100.00
29331;BME280;16331;52.528;13.342;2022-12-10T09:00:59;155889.25;;;0.56;100.00
29331;BME280;16331;52.528;13.342;2022-12-10T09:03:28;155946.34;;;0.77;100.00
29331;BME280;16331;52.528;13.342;2022-12-10T09:05:54;156102.63;;;1.34;100.00
29331;BME280;16331;52.528;13.342;2022-12-10T09:08:20;156038.75;;;1.11;100.00
29331;BME280;16331;52.528;13.342;2022-12-10T09:10:46;156106.75;;;1.36;100.00
29331;BME280;16331;52.528;13.342;2022-12-10T09:13:18;155966.72;;;0.84;100.00
29331;BME280;16331;52.528;13.342;2022-12-10T09:16:01;155951.75;;;0.79;100.00
29331;BME280;16331;52.528;13.342;2022-12-10T09:18:28;156029.22;;;1.07;100.00
29331;BME280;16331;52.528;13.342;2022-12-10T09:20:55;156022.44;;;1.05;100.00
29331;BME280;16331;52.528;13.342;2022-12-10T09:23:21;156042.81;;;1.12;100.00
29331;BME280;16331;52.528;13.342;2022-12-10T09:25:47;156063.25;;;1.20;100.00
29331;BME280;16331;52.528;13.342;2022-12-10T09:28:15;156142.09;;;1.49;100.00
29331;BME280;16331;52.528;13.342;2022-12-10T09:30:44;155989.84;;;0.93;100.00
29331;BME280;16331;52.528;13.342;2022-12-10T09:33:12;155911.00;;;0.64;100.00
29331;BME280;16331;52.528;13.342;2022-12-10T09:35:41;155905.56;;;0.62;100.00
29331;BME280;16331;52.528;13.342;2022-12-10T09:38:08;155915.06;;;0.65;100.00
29331;BME280;16331;52.528;13.342;2022-12-10T09:41:05;155963.97;;;0.83;100.00
29331;BME280;16331;52.528;13.342;2022-12-10T09:43:53;156068.66;;;1.22;100.00
29331;BME280;16331;52.528;13.342;2022-12-10T09:46:46;156177.44;;;1.62;100.00
29331;BME280;16331;52.528;13.342;2022-12-10T09:51:57;156046.91;;;1.14;100.00
29331;BME280;16331;52.528;13.342;2022-12-10T09:54:55;155973.50;;;0.87;100.00
29331;BME280;16331;52.528;13.342;2022-12-10T09:57:44;155970.78;;;0.86;100.00
29331;BME280;16331;52.528;13.342;2022-12-10T10:00:19;156040.13;;;1.11;100.00
29331;BME280;16331;52.528;13.342;2022-12-10T10:02:46;155984.41;;;0.91;100.00
29331;BME280;16331;52.528;13.342;2022-12-10T10:05:27;156034.66;;;1.09;100.00
29331;BME280;16331;52.528;13.342;2022-12-10T10:07:59;155958.56;;;0.81;100.00
29331;BME280;16331;52.528;13.342;2022-12-10T10:10:31;155931.38;;;0.71;100.00
29331;BME280;16331;52.528;13.342;2022-12-10T10:13:01;155957.19;;;0.81;100.00
29331;BME280;16331;52.528;13.342;2022-12-10T10:15:37;155953.13;;;0.79;100.00
29331;BME280;16331;52.528;13.342;2022-12-10T10:20:49;155954.50;;;0.80;100.00
29331;BME280;16331;52.528;13.342;2022-12-10T10:23:16;155938.16;;;0.74;100.00
29331;BME280;16331;52.528;13.342;2022-12-10T10:25:44;155955.81;;;0.80;100.00
29331;BME280;16331;52.528;13.342;2022-12-10T10:28:18;155977.56;;;0.88;100.00
29331;BME280;16331;52.528;13.342;2022-12-10T10:30:45;155995.25;;;0.95;100.00
29331;BME280;16331;52.528;13.342;2022-12-10T10:33:14;156052.34;;;1.16;100.00
29331;BME280;16331;52.528;13.342;2022-12-10T10:35:59;156055.03;;;1.17;100.00
29331;BME280;16331;52.528;13.342;2022-12-10T10:38:29;155999.31;;;0.96;100.00
29331;BME280;16331;52.528;13.342;2022-12-10T10:41:01;156067.31;;;1.21;100.00
29331;BME280;16331;52.528;13.342;2022-12-10T10:43:34;156071.41;;;1.23;100.00
29331;BME280;16331;52.528;13.342;2022-12-10T10:48:40;156531.38;;;2.92;100.00
29331;BME280;16331;52.528;13.342;2022-12-10T10:53:55;156158.44;;;1.55;100.00
29331;BME280;16331;52.528;13.342;2022-12-10T10:56:28;156167.91;;;1.59;100.00
29331;BME280;16331;52.528;13.342;2022-12-10T10:59:02;156068.66;;;1.22;100.00
29331;BME280;16331;52.528;13.342;2022-12-10T11:01:53;156057.78;;;1.18;100.00
29331;BME280;16331;52.528;13.342;2022-12-10T11:04:37;156050.97;;;1.15;100.00
29331;BME280;16331;52.528;13.342;2022-12-10T11:07:21;156030.59;;;1.08;100.00
29331;BME280;16331;52.528;13.342;2022-12-10T11:09:49;156165.22;;;1.58;100.00
29331;BME280;16331;52.528;13.342;2022-12-10T11:12:39;156172.03;;;1.60;100.00
29331;BME280;16331;52.528;13.342;2022-12-10T11:23:41;156012.91;;;1.01;100.00
29331;BME280;16331;52.528;13.342;2022-12-10T11:31:51;156063.25;;;1.20;100.00
29331;BME280;16331;52.528;13.342;2022-12-10T11:48:42;156197.88;;;1.70;100.00
29331;BME280;16331;52.528;13.342;2022-12-10T11:51:19;156140.75;;;1.48;100.00
29331;BME280;16331;52.528;13.342;2022-12-10T11:54:29;156151.59;;;1.52;100.00
29331;BME280;16331;52.528;13.342;2022-12-10T12:00:17;156112.16;;;1.38;100.00
29331;BME280;16331;52.528;13.342;2022-12-10T12:11:43;156061.88;;;1.19;100.00
29331;BME280;16331;52.528;13.342;2022-12-10T12:14:36;156044.19;;;1.13;100.00
29331;BME280;16331;52.528;13.342;2022-12-10T12:22:29;156014.28;;;1.02;100.00
29331;BME280;16331;52.528;13.342;2022-12-10T12:27:45;156022.44;;;1.05;100.00
29331;BME280;16331;52.528;13.342;2022-12-10T12:30:19;156053.72;;;1.16;100.00
29331;BME280;16331;52.528;13.342;2022-12-10T12:33:10;156061.88;;;1.19;100.00
29331;BME280;16331;52.528;13.342;2022-12-10T12:36:10;156037.41;;;1.10;100.00
29331;BME280;16331;52.528;13.342;2022-12-10T12:44:14;155962.66;;;0.83;100.00
29331;BME280;16331;52.528;13.342;2022-12-10T12:46:45;155969.41;;;0.85;100.00
29331;BME280;16331;52.528;13.342;2022-12-10T12:49:37;155932.75;;;0.72;100.00
29331;BME280;16331;52.528;13.342;2022-12-10T12:52:19;155957.19;;;0.81;100.00
29331;BME280;16331;52.528;13.342;2022-12-10T12:54:54;156018.38;;;1.03;100.00
29331;BME280;16331;52.528;13.342;2022-12-10T12:57:45;156015.66;;;1.02;100.00
29331;BME280;16331;52.528;13.342;2022-12-10T13:00:18;155976.25;;;0.88;100.00
29331;BME280;16331;52.528;13.342;2022-12-10T13:05:33;155992.53;;;0.94;100.00
29331;BME280;16331;52.528;13.342;2022-12-10T13:14:02;155992.53;;;0.94;100.00
29331;BME280;16331;52.528;13.342;2022-12-10T13:16:48;156025.16;;;1.06;100.00
29331;BME280;16331;52.528;13.342;2022-12-10T13:19:25;156072.72;;;1.23;100.00
29331;BME280;16331;52.528;13.342;2022-12-10T13:24:43;155993.91;;;0.94;100.00
29331;BME280;16331;52.528;13.342;2022-12-10T13:27:30;155987.09;;;0.92;100.00
29331;BME280;16331;52.528;13.342;2022-12-10T13:32:45;155999.31;;;0.96;100.00
29331;BME280;16331;52.528;13.342;2022-12-10T13:35:30;156048.28;;;1.14;100.00
29331;BME280;16331;52.528;13.342;2022-12-10T13:38:16;155992.53;;;0.94;100.00
29331;BME280;16331;52.528;13.342;2022-12-10T13:40:43;156011.53;;;1.01;100.00
29331;BME280;16331;52.528;13.342;2022-12-10T13:43:40;156033.28;;;1.09;100.00
29331;BME280;16331;52.528;13.342;2022-12-10T13:46:31;156018.38;;;1.03;100.00
29331;BME280;16331;52.528;13.342;2022-12-10T13:49:01;155923.22;;;0.68;100.00
29331;BME280;16331;52.528;13.342;2022-12-10T13:51:34;155984.41;;;0.91;100.00
29331;BME280;16331;52.528;13.342;2022-12-10T13:54:10;155957.19;;;0.81;100.00
29331;BME280;16331;52.528;13.342;2022-12-10T13:57:02;155940.91;;;0.75;100.00
29331;BME280;16331;52.528;13.342;2022-12-10T14:02:42;155992.53;;;0.94;100.00
29331;BME280;16331;52.528;13.342;2022-12-10T14:08:20;156060.50;;;1.19;100.00
29331;BME280;16331;52.528;13.342;2022-12-10T14:10:50;156017.00;;;1.03;100.00
29331;BME280;16331;52.528;13.342;2022-12-10T14:13:19;155998.00;;;0.96;100.00
29331;BME280;16331;52.528;13.342;2022-12-10T14:15:55;156031.97;;;1.08;100.00
29331;BME280;16331;52.528;13.342;2022-12-10T14:18:25;155912.31;;;0.64;100.00
29331;BME280;16331;52.528;13.342;2022-12-10T14:20:54;156007.47;;;0.99;100.00
29331;BME280;16331;52.528;13.342;2022-12-10T14:23:28;155951.75;;;0.79;100.00
29331;BME280;16331;52.528;13.342;2022-12-10T14:26:13;155935.44;;;0.73;100.00
29331;BME280;16331;52.528;13.342;2022-12-10T14:28:46;155954.50;;;0.80;100.00
29331;BME280;16331;52.528;13.342;2022-12-10T14:31:18;155973.50;;;0.87;100.00
29331;BME280;16331;52.528;13.342;2022-12-10T14:33:53;155973.50;;;0.87;100.00
29331;BME280;16331;52.528;13.342;2022-12-10T14:36:34;156060.50;;;1.19;100.00
29331;BME280;16331;52.528;13.342;2022-12-10T14:39:03;156033.28;;;1.09;100.00
29331;BME280;16331;52.528;13.342;2022-12-10T14:41:31;156061.88;;;1.19;100.00